Time;durP1;ratioP1;P1;durP2;ratioP2;P2;SDS_P1;SDS_P2;PMS_P1;PMS_P2;Temp;Humidity;BMP_temperature;BMP_pressure;BME280_temperature;BME280_humidity;BME280_pressure;Samples;Min_cycle;Max_cycle;Signal;HPM_P1;HPM_P2
2022/08/15 00:01:41;;;;;;;20.10;10.77;;;25.80;80.30;;;;;;5052452;28;20431;-50
2022/08/15 00:04:08;;;;;;;11.63;10.43;;;26.00;80.70;;;;;;5052297;28;20430;-49
2022/08/15 00:06:40;;;;;;;11.00;9.90;;;25.70;80.60;;;;;;5034457;28;20443;-49
2022/08/15 00:09:13;;;;;;;12.13;11.20;;;25.60;80.80;;;;;;5051748;28;20527;-50
2022/08/15 00:11:42;;;;;;;12.70;11.40;;;25.60;81.20;;;;;;5052228;28;20430;-49
2022/08/15 00:14:12;;;;;;;12.23;10.50;;;25.60;81.10;;;;;;5052352;28;20438;-49
2022/08/15 00:16:40;;;;;;;10.33;9.33;;;25.70;81.40;;;;;;5052025;28;20455;-49
2022/08/15 00:19:11;;;;;;;19.23;10.83;;;25.60;81.30;;;;;;5051044;28;20974;-50
2022/08/15 00:21:41;;;;;;;13.97;11.07;;;25.60;81.70;;;;;;5052102;28;20513;-50
2022/08/15 00:24:09;;;;;;;11.50;10.50;;;25.40;81.60;;;;;;5052112;28;20462;-50
2022/08/15 00:26:35;;;;;;;12.40;11.10;;;25.50;82.30;;;;;;5051971;28;20449;-50
2022/08/15 00:29:04;;;;;;;11.57;10.37;;;25.50;83.10;;;;;;5033670;28;20477;-50
2022/08/15 00:31:31;;;;;;;13.33;11.93;;;25.50;82.40;;;;;;5033985;28;20549;-49
2022/08/15 00:33:58;;;;;;;12.13;11.13;;;25.50;82.60;;;;;;5052088;28;20434;-49
2022/08/15 00:36:25;;;;;;;11.50;10.37;;;25.50;82.80;;;;;;5034226;28;20475;-49
2022/08/15 00:38:52;;;;;;;12.87;11.67;;;25.50;83.10;;;;;;5051506;28;20450;-50
2022/08/15 00:44:09;;;;;;;12.60;11.50;;;25.40;83.80;;;;;;5052161;28;20844;-50
2022/08/15 00:46:37;;;;;;;12.50;11.30;;;25.30;83.90;;;;;;5051868;28;20457;-49
2022/08/15 00:49:05;;;;;;;14.70;12.07;;;25.40;84.60;;;;;;5051400;28;20442;-50
2022/08/15 00:51:34;;;;;;;13.63;12.33;;;25.30;84.80;;;;;;5052424;28;20437;-50
2022/08/15 00:54:06;;;;;;;12.80;11.50;;;25.30;85.10;;;;;;5033983;28;20790;-50
2022/08/15 00:56:44;;;;;;;13.17;11.97;;;25.30;85.50;;;;;;5033930;28;20453;-50
2022/08/15 00:59:13;;;;;;;13.00;11.70;;;25.30;85.80;;;;;;5033485;28;20477;-50
2022/08/15 01:01:40;;;;;;;12.40;11.23;;;25.20;86.00;;;;;;5051867;28;20446;-50
2022/08/15 01:04:08;;;;;;;11.87;10.70;;;25.20;86.20;;;;;;5051805;28;20438;-49
2022/08/15 01:06:37;;;;;;;12.87;11.53;;;25.20;86.50;;;;;;5033781;28;21013;-49
2022/08/15 01:09:05;;;;;;;13.60;12.33;;;25.10;86.60;;;;;;5051075;28;20457;-49
2022/08/15 01:11:38;;;;;;;13.17;11.80;;;25.10;86.80;;;;;;5033856;28;20923;-49
2022/08/15 01:14:07;;;;;;;12.87;11.77;;;25.10;87.30;;;;;;5051834;28;20569;-49
2022/08/15 01:16:39;;;;;;;14.50;13.00;;;25.00;87.40;;;;;;5033694;28;20535;-50
2022/08/15 01:19:12;;;;;;;14.00;12.80;;;25.00;87.60;;;;;;5033311;28;20555;-51
2022/08/15 01:21:48;;;;;;;14.40;13.00;;;25.20;87.90;;;;;;5051555;28;20438;-50
2022/08/15 01:24:29;;;;;;;15.77;13.10;;;25.00;88.00;;;;;;5033719;28;20544;-50
2022/08/15 01:26:56;;;;;;;13.63;12.50;;;25.00;89.20;;;;;;5051745;28;20423;-49
2022/08/15 01:29:23;;;;;;;13.73;12.50;;;24.90;88.70;;;;;;5033263;28;20479;-50
2022/08/15 01:31:49;;;;;;;13.67;12.37;;;24.90;89.00;;;;;;5053636;28;20433;-49
2022/08/15 01:34:18;;;;;;;13.07;11.87;;;24.90;89.30;;;;;;5037437;28;21673;-50
2022/08/15 01:36:46;;;;;;;13.30;12.10;;;24.90;90.20;;;;;;5037414;28;20460;-49
2022/08/15 01:39:21;;;;;;;14.50;13.00;;;24.80;90.00;;;;;;5037074;28;20473;-49
2022/08/15 01:41:54;;;;;;;14.77;13.13;;;24.80;90.20;;;;;;5037243;28;20465;-50
2022/08/15 01:44:26;;;;;;;13.83;12.70;;;24.80;90.40;;;;;;5037206;28;20961;-50
2022/08/15 01:46:59;;;;;;;13.97;12.87;;;24.70;90.50;;;;;;5037583;28;20446;-49
2022/08/15 01:49:30;;;;;;;14.90;13.40;;;24.70;90.70;;;;;;5036721;28;20474;-50
2022/08/15 01:52:01;;;;;;;15.00;13.40;;;24.70;90.80;;;;;;5037129;28;20454;-49
2022/08/15 01:54:32;;;;;;;15.00;13.70;;;24.70;91.00;;;;;;5037181;28;20450;-50
2022/08/15 01:57:00;;;;;;;14.83;13.43;;;24.60;91.20;;;;;;5037030;28;20450;-49
2022/08/15 01:59:28;;;;;;;14.50;13.20;;;24.60;91.40;;;;;;5036889;28;20458;-49
2022/08/15 02:01:59;;;;;;;14.67;13.10;;;24.60;91.60;;;;;;5037185;28;21000;-49
2022/08/15 02:04:29;;;;;;;14.20;12.83;;;24.60;91.80;;;;;;5037043;28;21011;-49
2022/08/15 02:06:57;;;;;;;14.63;13.13;;;24.50;91.90;;;;;;5036778;28;20454;-49
2022/08/15 02:09:28;;;;;;;15.10;13.70;;;24.50;92.00;;;;;;5036489;28;20531;-50
2022/08/15 02:11:57;;;;;;;14.23;13.00;;;24.50;92.30;;;;;;5036785;28;20882;-50
2022/08/15 02:14:25;;;;;;;14.73;13.43;;;24.50;92.50;;;;;;5054667;28;20491;-49
2022/08/15 02:16:52;;;;;;;15.20;13.70;;;24.50;92.60;;;;;;5036453;28;20461;-49
2022/08/15 02:19:20;;;;;;;14.87;13.57;;;24.40;92.70;;;;;;5036088;28;20481;-49
2022/08/15 02:21:48;;;;;;;14.93;13.47;;;24.50;93.00;;;;;;5036569;28;20450;-49
2022/08/15 02:24:18;;;;;;;15.97;14.60;;;24.00;92.90;;;;;;5054581;28;20433;-49
2022/08/15 02:26:45;;;;;;;14.53;13.13;;;24.30;93.20;;;;;;5036679;28;20810;-49
2022/08/15 02:29:12;;;;;;;16.90;15.40;;;24.30;93.40;;;;;;5053832;28;20457;-50
2022/08/15 02:31:41;;;;;;;15.20;13.20;;;24.30;93.50;;;;;;5036650;28;20449;-50
2022/08/15 02:34:10;;;;;;;14.90;13.50;;;24.20;93.60;;;;;;5036303;28;20473;-49
2022/08/15 02:36:38;;;;;;;16.13;14.63;;;24.30;93.90;;;;;;5036150;28;20449;-49
2022/08/15 02:39:10;;;;;;;14.80;13.50;;;24.30;94.00;;;;;;5053708;28;20540;-49
2022/08/15 02:41:41;;;;;;;18.13;13.83;;;24.00;94.00;;;;;;5035788;28;20454;-50
2022/08/15 02:44:11;;;;;;;15.37;13.97;;;24.20;94.30;;;;;;5036371;28;20450;-49
2022/08/15 02:46:39;;;;;;;16.53;14.87;;;24.20;94.50;;;;;;5036088;28;20453;-49
2022/08/15 02:49:12;;;;;;;16.70;15.23;;;24.10;94.60;;;;;;5035509;28;20476;-49
2022/08/15 02:51:42;;;;;;;16.77;15.17;;;24.10;94.70;;;;;;5035955;28;20444;-49
2022/08/15 02:54:11;;;;;;;15.27;13.77;;;24.10;94.80;;;;;;5035887;28;20493;-50
2022/08/15 02:56:38;;;;;;;15.83;14.40;;;24.10;95.00;;;;;;5036287;28;20450;-50
2022/08/15 02:59:07;;;;;;;15.50;14.13;;;24.10;95.10;;;;;;5035404;28;20486;-50
2022/08/15 03:01:38;;;;;;;16.17;14.73;;;24.10;95.40;;;;;;5035751;28;20452;-49
2022/08/15 03:04:08;;;;;;;15.97;14.57;;;23.90;95.50;;;;;;5035929;28;20463;-49
2022/08/15 03:06:37;;;;;;;17.07;15.33;;;24.00;95.70;;;;;;5035959;28;20544;-49
2022/08/15 03:09:09;;;;;;;15.73;14.23;;;24.00;95.90;;;;;;5035391;28;20470;-50
2022/08/15 03:11:48;;;;;;;16.90;15.27;;;23.80;96.00;;;;;;5035499;28;20458;-49
2022/08/15 03:14:18;;;;;;;18.00;16.37;;;23.90;96.20;;;;;;5035372;28;20624;-48
2022/08/15 03:16:48;;;;;;;17.17;15.47;;;24.00;96.50;;;;;;5053411;28;20421;-49
2022/08/15 03:19:19;;;;;;;15.90;14.50;;;23.90;96.50;;;;;;5034913;28;20485;-50
2022/08/15 03:21:48;;;;;;;17.80;15.80;;;23.90;96.70;;;;;;5035351;28;20541;-49
2022/08/15 03:24:16;;;;;;;18.13;16.23;;;23.90;96.80;;;;;;5035403;28;20458;-49
2022/08/15 03:26:46;;;;;;;18.33;16.63;;;23.90;96.90;;;;;;5035279;28;20803;-50
2022/08/15 03:29:16;;;;;;;17.33;15.83;;;23.90;97.10;;;;;;5034678;28;20461;-50
2022/08/15 03:31:44;;;;;;;22.40;16.10;;;23.80;97.20;;;;;;5035292;28;20481;-49
2022/08/15 03:34:13;;;;;;;16.83;15.17;;;23.80;97.40;;;;;;5035261;28;20486;-50
2022/08/15 03:36:45;;;;;;;17.00;15.50;;;23.80;97.50;;;;;;5035207;28;21028;-49
2022/08/15 03:39:12;;;;;;;17.67;15.97;;;23.70;97.60;;;;;;5034375;28;20860;-50
2022/08/15 03:41:40;;;;;;;17.43;15.93;;;23.70;97.70;;;;;;5034898;28;20448;-49
2022/08/15 03:44:07;;;;;;;16.50;15.10;;;23.70;97.80;;;;;;5034876;28;20452;-49
2022/08/15 03:46:34;;;;;;;16.83;15.40;;;23.60;98.00;;;;;;5035048;28;20444;-50
2022/08/15 03:49:01;;;;;;;17.37;15.80;;;23.60;98.10;;;;;;5034420;28;20566;-49
2022/08/15 03:51:32;;;;;;;18.60;16.80;;;23.40;98.20;;;;;;5034637;28;20456;-50
2022/08/15 03:54:06;;;;;;;17.87;16.20;;;23.60;98.40;;;;;;5033888;28;21080;-49
2022/08/15 03:56:35;;;;;;;16.83;15.13;;;23.50;98.50;;;;;;5034719;28;20539;-49
2022/08/15 03:59:04;;;;;;;17.13;15.63;;;23.50;98.60;;;;;;5034190;28;20525;-49
2022/08/15 04:01:35;;;;;;;22.77;16.07;;;23.50;98.60;;;;;;5034841;28;20510;-50
2022/08/15 04:04:05;;;;;;;16.97;15.47;;;23.30;98.60;;;;;;5034523;28;20451;-49
2022/08/15 04:06:40;;;;;;;17.93;16.40;;;23.40;98.80;;;;;;5034383;28;20452;-49
2022/08/15 04:09:08;;;;;;;19.70;16.30;;;23.40;98.90;;;;;;5052052;28;20471;-50
2022/08/15 04:11:36;;;;;;;17.67;16.03;;;23.40;99.00;;;;;;5034493;28;20445;-50
2022/08/15 04:14:07;;;;;;;18.60;16.20;;;23.40;99.30;;;;;;5034484;28;20715;-50
2022/08/15 04:16:34;;;;;;;18.93;17.27;;;23.30;99.40;;;;;;5034092;28;20450;-50
2022/08/15 04:19:01;;;;;;;18.07;16.23;;;23.30;99.40;;;;;;5066894;22;20498;-48
2022/08/15 04:21:29;;;;;;;19.60;17.60;;;23.30;99.40;;;;;;5050382;28;20455;-49
2022/08/15 04:23:56;;;;;;;16.97;15.50;;;23.30;99.80;;;;;;5050238;28;20443;-48
2022/08/15 04:26:24;;;;;;;18.13;16.30;;;23.30;99.50;;;;;;5051617;28;20442;-49
2022/08/15 04:28:51;;;;;;;19.17;17.53;;;23.20;99.50;;;;;;5049756;28;20857;-49
2022/08/15 04:31:21;;;;;;;19.93;18.03;;;23.20;99.60;;;;;;5050420;28;20466;-48
2022/08/15 04:33:49;;;;;;;18.30;16.47;;;23.30;99.60;;;;;;5049986;28;20986;-49
2022/08/15 04:36:19;;;;;;;17.90;16.30;;;23.30;99.60;;;;;;5050207;28;20494;-48
2022/08/15 04:38:51;;;;;;;20.40;17.20;;;23.40;99.70;;;;;;5049607;28;20940;-48
2022/08/15 04:41:18;;;;;;;16.57;15.07;;;23.40;99.70;;;;;;5050195;28;20460;-48
2022/08/15 04:43:46;;;;;;;16.93;15.33;;;23.40;99.80;;;;;;5050499;28;20458;-48
2022/08/15 04:46:18;;;;;;;17.70;16.10;;;23.40;99.90;;;;;;5050072;28;20445;-48
2022/08/15 04:48:45;;;;;;;16.10;14.70;;;23.40;99.80;;;;;;5049288;28;20901;-48
2022/08/15 04:51:12;;;;;;;16.67;15.13;;;23.40;99.80;;;;;;5050020;28;20878;-48
2022/08/15 04:53:39;;;;;;;18.03;16.43;;;23.20;99.80;;;;;;5049603;28;20468;-48
2022/08/15 04:56:08;;;;;;;19.50;17.57;;;23.40;99.90;;;;;;5049827;28;20475;-49
2022/08/15 04:58:38;;;;;;;21.17;16.90;;;23.50;99.90;;;;;;5049483;28;20484;-48
2022/08/15 05:01:12;;;;;;;17.73;16.13;;;23.60;99.90;;;;;;5049782;28;20465;-48
2022/08/15 05:03:47;;;;;;;18.47;16.77;;;23.60;99.90;;;;;;5049900;28;20456;-48
2022/08/15 05:06:14;;;;;;;16.40;14.90;;;23.70;99.90;;;;;;5052423;28;20470;-48
2022/08/15 05:08:41;;;;;;;16.80;15.30;;;23.70;99.80;;;;;;5053424;28;20497;-49
2022/08/15 05:11:15;;;;;;;17.67;16.13;;;23.90;99.90;;;;;;5055419;28;20426;-47
2022/08/15 05:13:44;;;;;;;16.70;15.07;;;23.70;99.60;;;;;;5053828;28;20480;-48
2022/08/15 05:16:20;;;;;;;16.80;15.30;;;24.00;99.60;;;;;;5053258;28;20530;-49
2022/08/15 05:18:46;;;;;;;16.17;14.67;;;24.10;99.40;;;;;;5054231;28;20503;-48
2022/08/15 05:21:14;;;;;;;17.93;16.27;;;24.20;99.20;;;;;;5053378;28;20444;-50
2022/08/15 05:23:42;;;;;;;16.67;15.17;;;24.20;99.00;;;;;;5053606;28;20502;-50
2022/08/15 05:26:16;;;;;;;15.70;14.30;;;24.40;98.80;;;;;;5053494;28;20488;-49
2022/08/15 05:28:42;;;;;;;16.20;13.63;;;24.40;98.60;;;;;;5052877;28;21057;-48
2022/08/15 05:31:13;;;;;;;15.30;13.80;;;24.50;98.50;;;;;;5052972;28;20827;-48
2022/08/15 05:33:44;;;;;;;18.87;15.30;;;24.50;98.40;;;;;;5054306;28;20473;-49
2022/08/15 05:36:13;;;;;;;16.53;14.93;;;24.60;98.30;;;;;;5053006;28;20456;-49
2022/08/15 05:38:46;;;;;;;15.93;14.07;;;24.60;98.20;;;;;;5053954;28;20648;-49
2022/08/15 05:41:22;;;;;;;15.10;13.80;;;24.60;98.10;;;;;;5053024;28;20446;-50
2022/08/15 05:44:00;;;;;;;15.57;14.03;;;24.70;98.00;;;;;;5053204;28;20456;-49
2022/08/15 05:46:43;;;;;;;15.47;14.07;;;24.90;97.90;;;;;;5054468;28;20464;-48
2022/08/15 05:49:24;;;;;;;16.80;14.23;;;25.00;97.60;;;;;;5052662;28;20849;-48
2022/08/15 05:52:02;;;;;;;16.47;14.83;;;25.20;97.30;;;;;;5052911;28;20456;-49
2022/08/15 05:54:40;;;;;;;15.07;13.47;;;25.20;97.00;;;;;;5052841;28;20481;-49
2022/08/15 05:57:13;;;;;;;21.43;13.67;;;25.20;96.80;;;;;;5052897;28;20464;-49
2022/08/15 05:59:42;;;;;;;16.57;14.93;;;25.30;96.60;;;;;;5052525;28;20551;-48
2022/08/15 06:02:17;;;;;;;16.30;14.57;;;25.30;96.60;;;;;;5054540;28;20950;-48
2022/08/15 06:04:51;;;;;;;14.53;13.23;;;25.20;96.50;;;;;;5052981;28;20442;-48
2022/08/15 06:07:19;;;;;;;16.77;15.03;;;25.20;96.60;;;;;;5052713;28;20485;-49
2022/08/15 06:09:52;;;;;;;18.90;14.93;;;25.10;96.70;;;;;;5053031;28;20887;-49
2022/08/15 06:12:30;;;;;;;17.37;15.17;;;25.10;96.70;;;;;;5053466;28;20797;-49
2022/08/15 06:15:07;;;;;;;16.00;14.30;;;25.20;96.70;;;;;;5052666;28;20831;-50
2022/08/15 06:17:43;;;;;;;17.90;16.20;;;25.20;96.60;;;;;;5051854;28;20461;-49
2022/08/15 06:20:18;;;;;;;20.03;18.03;;;25.30;96.50;;;;;;5053607;28;20795;-49
2022/08/15 06:22:55;;;;;;;17.43;15.63;;;25.50;96.40;;;;;;5052454;28;20489;-49
2022/08/15 06:25:29;;;;;;;16.83;15.43;;;25.50;96.20;;;;;;5052298;28;20903;-49
2022/08/15 06:28:13;;;;;;;17.53;16.03;;;25.60;96.00;;;;;;5053833;28;20462;-49
2022/08/15 06:30:45;;;;;;;17.07;15.40;;;25.70;95.80;;;;;;5053149;28;20427;-49
2022/08/15 06:33:23;;;;;;;18.13;16.63;;;25.80;95.60;;;;;;5052116;28;20501;-49
2022/08/15 06:36:01;;;;;;;21.13;18.97;;;25.80;95.40;;;;;;5052657;28;20465;-49
2022/08/15 06:38:37;;;;;;;16.77;15.27;;;26.00;95.20;;;;;;5052925;28;20910;-48
2022/08/15 06:41:07;;;;;;;16.67;14.97;;;26.10;95.00;;;;;;5052342;28;20449;-49
2022/08/15 06:43:34;;;;;;;16.90;14.73;;;26.20;94.80;;;;;;5052337;28;20581;-50
2022/08/15 06:46:07;;;;;;;16.10;14.60;;;26.30;94.60;;;;;;5051654;28;20805;-50
2022/08/15 06:48:39;;;;;;;18.47;16.60;;;26.30;94.50;;;;;;5051651;28;20471;-48
2022/08/15 06:51:09;;;;;;;16.60;15.10;;;26.40;94.40;;;;;;5052073;28;20504;-49
2022/08/15 06:53:47;;;;;;;18.73;16.67;;;26.20;94.20;;;;;;5051944;28;20473;-50
2022/08/15 06:56:21;;;;;;;18.83;16.83;;;26.50;94.10;;;;;;5052053;28;20548;-48
2022/08/15 06:58:55;;;;;;;16.23;14.73;;;26.50;94.00;;;;;;5051536;28;20817;-50
2022/08/15 07:01:37;;;;;;;16.83;14.20;;;26.50;94.00;;;;;;5052005;28;20478;-49
2022/08/15 07:04:13;;;;;;;16.00;14.50;;;26.50;93.90;;;;;;5053127;28;20434;-50
2022/08/15 07:06:47;;;;;;;15.53;14.10;;;26.50;93.90;;;;;;5051570;28;20516;-49
2022/08/15 07:09:31;;;;;;;16.10;14.27;;;26.60;93.80;;;;;;5051520;28;20474;-49
2022/08/15 07:12:10;;;;;;;15.60;14.30;;;26.60;93.70;;;;;;5051587;28;20542;-49
2022/08/15 07:14:48;;;;;;;16.10;14.50;;;26.50;93.80;;;;;;5051381;28;20545;-48
2022/08/15 07:17:24;;;;;;;13.13;12.07;;;26.90;93.80;;;;;;5051274;28;20446;-49
2022/08/15 07:19:54;;;;;;;12.43;11.33;;;26.50;93.60;;;;;;5051252;28;20461;-49
2022/08/15 07:22:32;;;;;;;11.77;10.87;;;26.60;93.50;;;;;;5051106;28;20505;-48
2022/08/15 07:24:59;;;;;;;12.90;11.83;;;26.50;93.30;;;;;;5051259;28;20480;-49
2022/08/15 07:27:29;;;;;;;13.07;11.80;;;26.50;93.30;;;;;;5051201;28;20456;-49
2022/08/15 07:29:59;;;;;;;13.20;11.80;;;26.50;93.20;;;;;;5049807;28;20565;-49
2022/08/15 07:32:31;;;;;;;15.03;13.73;;;26.60;93.00;;;;;;5050825;28;20561;-48
2022/08/15 07:35:04;;;;;;;12.77;11.47;;;26.60;93.00;;;;;;5051298;28;20474;-51
2022/08/15 07:37:56;;;;;;;11.00;10.10;;;26.60;93.00;;;;;;5051093;28;20458;-48
2022/08/15 07:40:28;;;;;;;12.20;11.07;;;26.60;92.70;;;;;;4993597;28;20467;-48
2022/08/15 07:42:56;;;;;;;12.50;11.30;;;26.60;92.70;;;;;;4994197;28;20984;-48
2022/08/15 07:45:30;;;;;;;10.60;9.60;;;26.60;92.70;;;;;;4993611;28;20448;-49
2022/08/15 07:48:07;;;;;;;12.17;11.07;;;26.70;92.60;;;;;;4993818;28;20491;-48
2022/08/15 07:50:41;;;;;;;13.70;11.50;;;26.80;92.50;;;;;;5044785;28;20458;-49
2022/08/15 07:53:17;;;;;;;12.00;10.90;;;26.90;92.40;;;;;;5050903;28;20485;-49
2022/08/15 07:56:10;;;;;;;17.63;11.87;;;26.90;92.20;;;;;;5050516;28;20485;-48
2022/08/15 07:58:39;;;;;;;17.40;10.70;;;26.90;92.00;;;;;;5050308;28;20465;-48
2022/08/15 08:01:12;;;;;;;10.97;9.83;;;26.90;92.00;;;;;;5051089;28;20546;-49
2022/08/15 08:03:42;;;;;;;11.53;10.33;;;26.90;91.90;;;;;;5050530;28;20454;-49
2022/08/15 08:06:17;;;;;;;11.30;9.13;;;26.90;91.60;;;;;;5050674;28;20457;-49
2022/08/15 08:08:53;;;;;;;12.53;11.37;;;26.90;91.50;;;;;;5050131;28;20493;-48
2022/08/15 08:11:26;;;;;;;11.33;10.33;;;27.00;91.50;;;;;;5050219;28;20545;-49
2022/08/15 08:14:02;;;;;;;12.67;10.40;;;27.00;91.40;;;;;;5050501;28;20443;-48
2022/08/15 08:16:38;;;;;;;11.13;10.03;;;27.00;91.30;;;;;;5050360;28;20529;-49
2022/08/15 08:19:11;;;;;;;15.37;10.73;;;26.90;91.30;;;;;;5049810;28;20485;-48
2022/08/15 08:21:52;;;;;;;12.17;10.97;;;27.00;91.20;;;;;;5049971;28;20454;-49
2022/08/15 08:24:28;;;;;;;11.37;10.37;;;27.00;91.10;;;;;;5050251;28;20867;-49
2022/08/15 08:27:04;;;;;;;10.87;9.97;;;27.10;91.00;;;;;;5049932;28;20541;-49
2022/08/15 08:29:41;;;;;;;12.90;11.50;;;27.20;90.80;;;;;;5049156;28;20476;-49
2022/08/15 08:32:18;;;;;;;11.77;10.17;;;27.30;90.70;;;;;;5050058;28;20450;-49
2022/08/15 08:34:54;;;;;;;11.00;9.90;;;27.30;90.40;;;;;;5049884;28;20473;-49
2022/08/15 08:37:28;;;;;;;14.93;11.93;;;27.40;90.70;;;;;;5050921;28;20579;-49
2022/08/15 08:41:24;;;;;;;12.83;11.50;;;27.40;90.30;;;;;;5049067;28;20461;-49
2022/08/15 08:42:58;;;;;;;13.00;11.67;;;27.40;90.60;;;;;;5049588;28;20516;-49
2022/08/15 08:45:30;;;;;;;11.23;10.20;;;27.50;90.20;;;;;;5049737;28;20963;-48
2022/08/15 08:48:11;;;;;;;12.90;11.57;;;27.50;90.10;;;;;;5049645;28;20558;-48
2022/08/15 08:50:53;;;;;;;12.20;11.20;;;27.60;89.80;;;;;;5049096;28;20473;-49
2022/08/15 08:53:29;;;;;;;13.40;11.83;;;27.60;89.40;;;;;;5051262;28;20792;-50
2022/08/15 08:56:03;;;;;;;12.03;10.80;;;27.70;89.60;;;;;;5050746;28;20550;-50
2022/08/15 08:58:36;;;;;;;12.67;11.47;;;27.60;89.70;;;;;;5050669;28;20453;-48
2022/08/15 09:01:07;;;;;;;12.17;11.10;;;27.70;89.80;;;;;;5050963;28;20481;-48
2022/08/15 09:03:39;;;;;;;13.03;11.73;;;27.60;89.40;;;;;;5051452;28;20767;-49
2022/08/15 09:06:10;;;;;;;12.53;11.37;;;27.60;89.40;;;;;;5048981;28;20503;-49
2022/08/15 09:08:41;;;;;;;12.83;11.60;;;27.60;88.90;;;;;;5049981;28;20514;-48
2022/08/15 09:11:18;;;;;;;13.83;12.50;;;27.80;88.90;;;;;;5050680;28;20446;-49
2022/08/15 09:13:46;;;;;;;12.57;11.50;;;27.80;88.50;;;;;;5050775;28;20430;-49
2022/08/15 09:16:16;;;;;;;11.80;10.70;;;27.80;88.10;;;;;;5050958;28;20470;-48
2022/08/15 09:18:50;;;;;;;17.33;12.97;;;27.90;87.70;;;;;;5049704;28;20476;-48
2022/08/15 09:21:18;;;;;;;12.80;11.70;;;27.90;87.30;;;;;;5050991;28;20435;-49
2022/08/15 09:23:47;;;;;;;13.70;12.43;;;27.90;87.30;;;;;;5050582;28;20452;-49
2022/08/15 09:26:25;;;;;;;14.97;13.47;;;27.90;87.60;;;;;;5050636;28;20798;-46
2022/08/15 09:29:07;;;;;;;15.03;12.90;;;28.00;87.50;;;;;;5050748;28;20822;-47
2022/08/15 09:31:37;;;;;;;14.50;11.87;;;28.00;87.30;;;;;;5051422;28;20437;-48
2022/08/15 09:34:20;;;;;;;15.83;11.77;;;28.00;87.40;;;;;;5051336;28;20442;-46
2022/08/15 09:37:20;;;;;;;13.40;12.00;;;28.00;86.90;;;;;;5052035;28;20436;-47
2022/08/15 09:40:06;;;;;;;12.47;11.03;;;28.00;85.80;;;;;;5051227;28;21018;-47
2022/08/15 09:42:55;;;;;;;12.40;11.20;;;28.10;85.30;;;;;;5052210;28;20411;-48
2022/08/15 09:45:37;;;;;;;11.97;10.87;;;28.20;84.60;;;;;;5051358;28;20996;-46
2022/08/15 09:48:24;;;;;;;12.30;11.13;;;28.40;84.10;;;;;;5051177;28;20467;-47
2022/08/15 09:51:03;;;;;;;10.70;9.70;;;28.50;83.90;;;;;;5051082;28;20444;-45
2022/08/15 09:53:46;;;;;;;12.17;11.07;;;28.50;82.50;;;;;;5054465;28;20751;-47
2022/08/15 09:56:19;;;;;;;10.90;10.00;;;28.70;81.20;;;;;;5054427;28;20473;-46
2022/08/15 09:58:53;;;;;;;11.87;10.77;;;28.70;80.90;;;;;;5054078;28;20904;-47
2022/08/15 10:01:25;;;;;;;12.87;11.43;;;28.80;80.90;;;;;;5054111;28;20808;-46
2022/08/15 10:03:58;;;;;;;13.37;12.17;;;28.80;81.00;;;;;;5054115;28;20434;-47
2022/08/15 10:06:27;;;;;;;13.40;12.30;;;28.80;81.00;;;;;;5053833;28;20515;-47
2022/08/15 10:09:21;;;;;;;12.40;10.93;;;28.80;80.80;;;;;;5053630;28;20461;-47
2022/08/15 10:12:31;;;;;;;12.53;11.30;;;29.00;80.10;;;;;;5053906;28;20439;-48
2022/08/15 10:15:22;;;;;;;10.43;9.53;;;29.00;79.40;;;;;;5051910;28;20762;-47
2022/08/15 10:17:52;;;;;;;13.00;11.60;;;29.10;79.50;;;;;;5077902;22;20470;-47
2022/08/15 10:20:57;;;;;;;11.80;10.80;;;29.20;79.40;;;;;;5073442;28;20464;-47
2022/08/15 10:23:29;;;;;;;16.50;10.37;;;29.10;78.50;;;;;;5032004;28;20443;-49
2022/08/15 10:26:21;;;;;;;12.07;10.97;;;29.10;78.90;;;;;;5066449;28;20552;-48
2022/08/15 10:29:13;;;;;;;11.10;10.30;;;29.00;78.60;;;;;;5068472;28;20482;-50
2022/08/15 10:31:52;;;;;;;11.53;10.50;;;29.00;78.20;;;;;;5066216;28;20459;-50
2022/08/15 10:34:37;;;;;;;12.00;9.73;;;29.10;78.40;;;;;;5052426;28;20454;-49
2022/08/15 10:37:15;;;;;;;10.70;9.60;;;29.00;78.20;;;;;;5053812;28;20434;-50
2022/08/15 10:40:21;;;;;;;10.77;9.40;;;29.00;78.50;;;;;;5053926;28;20454;-48
2022/08/15 10:42:57;;;;;;;10.40;9.30;;;29.10;78.20;;;;;;5007309;28;20464;-48
2022/08/15 10:45:34;;;;;;;11.17;10.10;;;29.30;77.70;;;;;;5046739;28;20450;-49
2022/08/15 10:48:10;;;;;;;10.40;9.50;;;29.40;77.00;;;;;;5053637;28;20541;-49
2022/08/15 10:50:51;;;;;;;10.80;9.70;;;29.50;76.40;;;;;;5053216;28;20427;-49
2022/08/15 10:53:31;;;;;;;11.53;10.40;;;29.70;75.10;;;;;;5053693;28;20998;-49
2022/08/15 10:56:09;;;;;;;11.73;10.73;;;29.90;74.60;;;;;;5053693;28;20484;-49
2022/08/15 10:58:36;;;;;;;11.57;10.57;;;29.90;74.30;;;;;;5052846;28;20450;-49
2022/08/15 11:01:07;;;;;;;10.40;9.60;;;30.00;74.30;;;;;;5052302;28;20447;-49
2022/08/15 11:03:41;;;;;;;12.17;11.03;;;30.00;73.70;;;;;;5053193;28;20430;-49
2022/08/15 11:06:13;;;;;;;11.50;10.50;;;30.20;73.60;;;;;;5053071;28;20934;-50
2022/08/15 11:08:46;;;;;;;12.43;11.20;;;30.30;73.30;;;;;;5052657;28;20554;-50
2022/08/15 11:11:13;;;;;;;11.00;9.90;;;30.40;72.70;;;;;;5053245;28;20518;-49
2022/08/15 11:13:43;;;;;;;14.37;10.60;;;30.50;72.70;;;;;;5053085;28;20919;-49
2022/08/15 11:16:27;;;;;;;11.77;10.53;;;30.60;72.10;;;;;;5052754;28;20486;-48
2022/08/15 11:18:56;;;;;;;13.57;12.17;;;30.60;71.80;;;;;;5052518;28;20458;-50
2022/08/15 11:21:37;;;;;;;11.60;10.50;;;30.60;72.00;;;;;;5031508;28;50774;-50
2022/08/15 11:24:06;;;;;;;11.40;10.37;;;30.50;71.50;;;;;;5030093;28;20444;-50
2022/08/15 11:26:35;;;;;;;12.07;11.00;;;30.40;71.50;;;;;;5032843;28;20482;-48
2022/08/15 11:29:10;;;;;;;10.93;9.70;;;30.40;71.50;;;;;;5032540;28;20474;-49
2022/08/15 11:31:48;;;;;;;10.30;9.30;;;30.40;70.00;;;;;;5032903;28;20473;-49
2022/08/15 11:34:21;;;;;;;10.37;8.63;;;30.40;69.90;;;;;;5032692;28;20435;-49
2022/08/15 11:36:51;;;;;;;11.53;9.87;;;30.30;70.00;;;;;;5031178;28;20479;-49
2022/08/15 11:39:19;;;;;;;10.17;9.20;;;30.30;70.10;;;;;;5032108;28;20975;-50
2022/08/15 11:41:50;;;;;;;12.20;9.20;;;30.30;70.20;;;;;;5032484;28;20462;-50
2022/08/15 11:44:17;;;;;;;11.13;10.03;;;30.30;70.00;;;;;;5032471;28;20424;-49
2022/08/15 11:46:47;;;;;;;10.70;9.70;;;30.30;70.00;;;;;;5033014;28;20523;-50
2022/08/15 11:49:23;;;;;;;10.00;9.17;;;30.40;69.90;;;;;;5032236;28;20506;-50
2022/08/15 11:51:52;;;;;;;10.53;9.63;;;30.50;70.30;;;;;;5032536;28;20463;-49
2022/08/15 11:54:22;;;;;;;12.90;9.70;;;30.60;69.30;;;;;;5032290;28;20432;-50
2022/08/15 11:56:51;;;;;;;13.97;11.47;;;30.70;69.00;;;;;;5030463;28;20916;-48
2022/08/15 11:59:22;;;;;;;14.50;13.07;;;30.70;68.30;;;;;;5030528;28;20833;-48
2022/08/15 12:02:14;;;;;;;11.63;10.10;;;30.90;68.10;;;;;;5032163;28;20440;-48
2022/08/15 12:04:43;;;;;;;9.90;8.90;;;30.90;67.10;;;;;;5032697;28;20912;-49
2022/08/15 12:07:20;;;;;;;11.07;9.97;;;31.00;66.90;;;;;;5030642;28;20455;-49
2022/08/15 12:09:54;;;;;;;10.83;9.83;;;31.10;65.90;;;;;;5031642;28;20453;-48
2022/08/15 12:12:31;;;;;;;10.80;9.80;;;31.10;65.70;;;;;;5032031;28;20903;-49
2022/08/15 12:15:03;;;;;;;13.67;10.30;;;31.10;65.60;;;;;;5031223;28;20753;-48
2022/08/15 12:17:32;;;;;;;11.60;10.53;;;31.20;65.60;;;;;;5031395;28;20491;-48
2022/08/15 12:19:59;;;;;;;11.53;10.53;;;31.20;65.70;;;;;;5031573;28;20463;-49
2022/08/15 12:22:31;;;;;;;11.10;9.30;;;31.20;65.60;;;;;;5031767;28;20473;-49
2022/08/15 12:24:58;;;;;;;10.30;9.60;;;31.30;65.50;;;;;;5032025;28;20439;-48
2022/08/15 12:27:25;;;;;;;11.93;10.47;;;31.40;65.10;;;;;;5031357;28;20431;-49
2022/08/15 12:29:52;;;;;;;10.53;9.60;;;31.50;65.10;;;;;;5031244;28;20493;-50
2022/08/15 12:32:19;;;;;;;11.03;9.90;;;31.60;64.70;;;;;;5032109;28;20440;-48
2022/08/15 12:34:48;;;;;;;9.80;8.80;;;31.70;64.50;;;;;;5032110;28;20448;-48
2022/08/15 12:37:18;;;;;;;10.70;9.80;;;31.70;63.90;;;;;;5031574;28;20480;-49
2022/08/15 12:39:48;;;;;;;11.13;10.17;;;31.70;63.50;;;;;;5031286;28;20474;-48
2022/08/15 12:42:18;;;;;;;13.03;10.07;;;31.70;63.50;;;;;;5031581;28;20436;-50
2022/08/15 12:44:48;;;;;;;11.30;10.10;;;31.80;62.40;;;;;;5031335;28;20443;-49
2022/08/15 12:47:15;;;;;;;10.80;9.73;;;31.80;62.10;;;;;;5031476;28;20435;-49
2022/08/15 12:49:42;;;;;;;10.37;9.57;;;31.90;62.20;;;;;;5029695;28;20475;-49
2022/08/15 12:52:08;;;;;;;10.93;10.03;;;31.90;62.00;;;;;;5031555;28;20538;-48
2022/08/15 12:54:35;;;;;;;10.80;10.00;;;31.90;61.80;;;;;;5032026;28;20628;-49
2022/08/15 12:57:03;;;;;;;9.63;8.87;;;31.80;62.00;;;;;;5031769;28;20842;-49
2022/08/15 12:59:30;;;;;;;10.80;9.70;;;31.90;62.00;;;;;;5031385;28;20562;-50